KBNA/BNA METAR and TAF weather

Enter ICAO airport designator
Station Type Date Time Source
KBNA METAR 2020/01/26 18:53 UTC NOAA

KBNA 261853Z 19007KT 10SM OVC050 08/02 A3003 RMK AO2 SLP171 T00780017


Station Type Date Time Source
KBNA Decoded METAR 2020/01/26 18:53 UTC NOAA

NASHVILLE INTERNATIONAL AIRPORT, TN, United States (KBNA) 36-07N 086-41W 210M
Jan 26, 2020 - 01:53 PM EST / 2020.01.26 1853 UTC
Wind: from the S (190 degrees) at 8 MPH (7 KT):0
Visibility: 10 mile(s):0
Sky conditions: overcast
Temperature: 46.0 F (7.8 C)
Dew Point: 35.1 F (1.7 C)
Relative Humidity: 65%
Pressure (altimeter): 30.03 in. Hg (1016 hPa)
ob: KBNA 261853Z 19007KT 10SM OVC050 08/02 A3003 RMK AO2 SLP171 T00780017
cycle: 19

Station Type Date Time Source
KBNA TAF 2020/01/26 18:22 UTC NOAA

TAF KBNA 261720Z 2618/2718 20006KT P6SM OVC050
FM270000 20004KT P6SM VCSH OVC015
FM270400 21005KT 5SM -SHRA OVC009
FM271500 32006KT P6SM OVC015

Example: see airport list